Time;durP1;ratioP1;P1;durP2;ratioP2;P2;SDS_P1;SDS_P2;PMS_P1;PMS_P2;Temp;Humidity;BMP_temperature;BMP_pressure;BME280_temperature;BME280_humidity;BME280_pressure;Samples;Min_cycle;Max_cycle;Signal;HPM_P1;HPM_P2
2021/12/08 00:00:58;;;;;;;7.72;1.58;;;21.40;99.90;;;;;;5012105;28;20049;-72
2021/12/08 00:03:28;;;;;;;5.70;1.50;;;21.40;99.90;;;;;;5015299;28;20076;-75
2021/12/08 00:05:56;;;;;;;8.02;1.50;;;21.50;99.90;;;;;;5013333;28;20028;-75
2021/12/08 00:08:28;;;;;;;8.32;1.85;;;21.40;99.90;;;;;;5016484;28;20498;-71
2021/12/08 00:13:25;;;;;;;5.53;1.00;;;21.50;99.90;;;;;;5020416;28;20169;-73
2021/12/08 00:15:55;;;;;;;7.25;1.10;;;21.50;99.90;;;;;;5019663;28;20466;-75
2021/12/08 00:18:27;;;;;;;7.68;1.45;;;21.40;99.90;;;;;;5020593;28;20033;-76
2021/12/08 00:20:57;;;;;;;9.50;2.28;;;21.40;99.90;;;;;;5019291;28;20100;-75
2021/12/08 00:23:26;;;;;;;9.07;2.05;;;21.60;99.90;;;;;;5019402;28;20111;-79
2021/12/08 00:25:54;;;;;;;9.05;1.90;;;21.80;99.90;;;;;;5018965;28;20029;-76
2021/12/08 00:28:22;;;;;;;8.73;1.55;;;21.90;99.90;;;;;;5020107;28;20053;-82
2021/12/08 00:30:52;;;;;;;9.93;1.13;;;21.90;99.90;;;;;;5019565;28;20434;-78
2021/12/08 00:33:21;;;;;;;7.72;1.83;;;22.00;99.90;;;;;;5019769;28;20045;-75
2021/12/08 00:35:50;;;;;;;7.57;1.10;;;22.00;99.90;;;;;;5002766;28;20028;-75
2021/12/08 00:38:18;;;;;;;5.93;2.38;;;22.10;99.90;;;;;;5017910;28;20017;-76
2021/12/08 00:40:48;;;;;;;7.32;1.85;;;22.00;99.90;;;;;;5018653;28;20033;-75
2021/12/08 00:43:16;;;;;;;5.43;1.02;;;22.00;99.90;;;;;;5018159;28;20117;-74
2021/12/08 00:45:43;;;;;;;6.65;1.38;;;22.20;99.90;;;;;;5018733;28;20063;-73
2021/12/08 00:48:11;;;;;;;9.65;1.95;;;22.20;99.90;;;;;;5001504;28;20028;-74
2021/12/08 00:50:39;;;;;;;9.02;2.03;;;22.30;99.90;;;;;;5001826;28;20029;-75
2021/12/08 00:53:08;;;;;;;10.55;2.58;;;22.40;99.90;;;;;;5016013;28;20103;-77
2021/12/08 00:55:36;;;;;;;10.05;2.63;;;22.30;99.90;;;;;;5017311;28;20391;-77
2021/12/08 00:58:05;;;;;;;5.22;1.63;;;22.30;99.90;;;;;;5015760;28;20121;-73
2021/12/08 01:00:44;;;;;;;7.78;2.08;;;22.20;99.90;;;;;;5018699;28;20024;-78
2021/12/08 01:03:14;;;;;;;8.38;1.67;;;22.10;99.90;;;;;;5015752;28;20103;-80
2021/12/08 01:05:51;;;;;;;7.43;2.65;;;22.00;99.90;;;;;;5017095;28;20022;-74
2021/12/08 01:08:20;;;;;;;7.18;1.58;;;22.00;99.90;;;;;;5016222;28;20686;-76
2021/12/08 01:10:50;;;;;;;7.53;2.05;;;22.00;99.90;;;;;;5018639;28;20059;-76
2021/12/08 01:13:18;;;;;;;8.82;1.13;;;21.80;99.90;;;;;;5016339;28;20026;-75
2021/12/08 01:15:49;;;;;;;7.30;1.25;;;21.70;99.90;;;;;;5019651;28;20057;-75
2021/12/08 01:18:18;;;;;;;6.82;1.00;;;21.80;99.90;;;;;;5016790;28;20021;-74
2021/12/08 01:20:48;;;;;;;9.73;1.80;;;21.60;99.90;;;;;;5019331;28;20037;-75
2021/12/08 01:23:16;;;;;;;8.25;2.72;;;21.50;99.90;;;;;;4998324;28;20037;-72
2021/12/08 01:25:44;;;;;;;8.27;1.90;;;21.50;99.90;;;;;;5016556;28;20172;-79
2021/12/08 01:28:11;;;;;;;10.13;1.60;;;21.50;99.90;;;;;;5015438;28;20025;-78
2021/12/08 01:30:39;;;;;;;10.52;3.25;;;21.50;99.90;;;;;;5017281;28;20049;-76
2021/12/08 01:33:06;;;;;;;7.95;2.75;;;21.50;99.90;;;;;;5017085;28;20098;-80
2021/12/08 01:35:34;;;;;;;15.00;3.35;;;21.40;99.90;;;;;;5017800;28;20024;-79
2021/12/08 01:38:01;;;;;;;16.45;4.15;;;21.40;99.90;;;;;;5018745;28;20029;-75
2021/12/08 01:40:28;;;;;;;14.23;4.18;;;21.40;99.90;;;;;;5016458;28;20021;-80
2021/12/08 01:42:58;;;;;;;11.48;2.53;;;21.40;99.90;;;;;;5019034;28;20168;-75
2021/12/08 01:48:17;;;;;;;12.63;2.22;;;21.20;99.90;;;;;;5005180;28;20079;-78
2021/12/08 01:50:54;;;;;;;9.27;3.08;;;21.10;99.90;;;;;;5017915;28;20168;-78
2021/12/08 01:53:23;;;;;;;12.27;3.03;;;21.10;99.90;;;;;;5000206;28;20474;-75
2021/12/08 01:55:50;;;;;;;16.77;4.95;;;21.10;99.90;;;;;;5018546;28;20041;-75
2021/12/08 01:58:18;;;;;;;21.30;3.72;;;21.10;99.90;;;;;;5018622;28;20470;-79
2021/12/08 02:00:55;;;;;;;13.82;4.10;;;21.10;99.90;;;;;;5016788;28;20029;-79
2021/12/08 02:03:23;;;;;;;13.52;3.60;;;21.00;99.90;;;;;;5018766;28;20045;-77
2021/12/08 02:05:51;;;;;;;8.98;2.63;;;21.00;99.90;;;;;;5001516;28;20115;-79
2021/12/08 02:08:19;;;;;;;12.68;2.70;;;20.90;99.90;;;;;;5019542;28;20021;-79
2021/12/08 02:10:48;;;;;;;14.80;2.22;;;20.90;99.90;;;;;;5017507;28;20032;-78
2021/12/08 02:13:17;;;;;;;14.07;2.53;;;21.00;99.90;;;;;;5017879;28;20104;-76
2021/12/08 02:15:45;;;;;;;12.73;3.15;;;21.10;99.90;;;;;;5017032;28;20435;-75
2021/12/08 02:18:15;;;;;;;10.10;2.00;;;21.10;99.90;;;;;;5019138;28;20017;-74
2021/12/08 02:20:48;;;;;;;14.02;2.33;;;21.00;99.90;;;;;;5017813;28;20032;-74
2021/12/08 02:23:17;;;;;;;14.77;3.35;;;21.10;99.90;;;;;;5001189;28;20128;-78
2021/12/08 02:25:45;;;;;;;15.70;4.13;;;21.10;99.90;;;;;;5000916;28;20684;-76
2021/12/08 02:28:13;;;;;;;10.63;2.22;;;21.10;99.90;;;;;;5000876;28;20421;-76
2021/12/08 02:30:47;;;;;;;10.93;3.35;;;21.00;99.90;;;;;;5018766;28;20035;-76
2021/12/08 02:47:28;;;;;;;11.88;3.00;;;20.70;99.90;;;;;;5015675;28;20032;-78
2021/12/08 02:49:56;;;;;;;15.57;2.88;;;20.70;99.90;;;;;;5001207;28;20022;-79
2021/12/08 02:52:23;;;;;;;20.35;4.57;;;20.70;99.90;;;;;;5015374;28;20017;-79
2021/12/08 02:54:52;;;;;;;11.68;2.22;;;20.60;99.90;;;;;;5018885;28;20108;-84
2021/12/08 02:57:26;;;;;;;9.15;2.40;;;20.60;99.90;;;;;;5016523;28;20123;-79
2021/12/08 02:59:54;;;;;;;13.15;2.47;;;20.70;99.90;;;;;;5016126;28;20056;-77
2021/12/08 03:02:21;;;;;;;12.77;2.20;;;20.70;99.90;;;;;;5014901;28;20053;-79
2021/12/08 03:04:48;;;;;;;10.88;2.60;;;20.80;99.90;;;;;;5012083;28;20021;-78
2021/12/08 03:07:16;;;;;;;12.73;2.05;;;21.00;99.90;;;;;;5009481;28;20033;-75
2021/12/08 03:09:44;;;;;;;15.45;2.55;;;21.10;99.90;;;;;;5013253;28;20029;-81
2021/12/08 03:12:12;;;;;;;13.20;3.58;;;21.20;99.90;;;;;;5010526;28;20112;-79
2021/12/08 03:14:40;;;;;;;13.38;2.42;;;21.20;99.90;;;;;;5012579;28;20025;-76
2021/12/08 03:17:10;;;;;;;19.13;3.15;;;21.20;99.90;;;;;;5012341;28;20029;-76
2021/12/08 03:19:37;;;;;;;13.60;2.42;;;21.20;99.90;;;;;;5012794;28;20025;-82
2021/12/08 03:22:10;;;;;;;15.35;3.03;;;21.20;99.90;;;;;;5013484;28;20749;-84
2021/12/08 03:24:39;;;;;;;;;;;21.20;99.90;;;;;;5012902;28;20083;-77
2021/12/08 03:27:14;;;;;;;10.70;2.60;;;21.00;99.90;;;;;;5013055;28;19909;-76
2021/12/08 03:29:51;;;;;;;16.52;4.47;;;20.90;99.90;;;;;;5013479;28;20075;-80
2021/12/08 03:32:28;;;;;;;14.65;2.85;;;20.80;99.90;;;;;;5011172;28;20037;-80
2021/12/08 03:34:55;;;;;;;17.50;3.05;;;20.70;99.90;;;;;;5013494;28;20029;-82
2021/12/08 03:37:28;;;;;;;14.10;2.53;;;20.70;99.90;;;;;;5011441;28;20386;-77
2021/12/08 03:39:57;;;;;;;15.73;2.40;;;20.60;99.90;;;;;;5013080;28;20025;-83
2021/12/08 03:42:28;;;;;;;17.50;3.60;;;20.60;99.90;;;;;;4992856;28;20049;-82
2021/12/08 03:44:59;;;;;;;21.08;3.28;;;20.50;99.90;;;;;;4999162;28;20018;-81
2021/12/08 03:47:29;;;;;;;16.38;2.33;;;20.50;99.90;;;;;;5014927;28;20083;-79
2021/12/08 03:50:01;;;;;;;17.17;3.03;;;20.40;99.90;;;;;;5017100;28;20021;-83
2021/12/08 03:52:28;;;;;;;17.52;2.90;;;20.50;99.90;;;;;;5013960;28;20022;-79
2021/12/08 03:54:56;;;;;;;20.30;3.38;;;20.40;99.90;;;;;;5016850;28;20064;-74
2021/12/08 03:57:23;;;;;;;13.23;4.13;;;20.30;99.90;;;;;;5017454;28;20029;-75
2021/12/08 03:59:51;;;;;;;23.60;4.25;;;20.20;99.90;;;;;;5013996;28;20049;-76
2021/12/08 04:02:18;;;;;;;15.80;3.13;;;20.10;99.90;;;;;;5015412;28;20051;-73
2021/12/08 04:04:50;;;;;;;15.05;2.47;;;20.10;99.90;;;;;;5013127;28;20155;-78
2021/12/08 04:07:18;;;;;;;19.08;4.13;;;20.00;99.90;;;;;;4999290;28;20577;-74
2021/12/08 04:09:49;;;;;;;25.05;4.20;;;20.00;99.90;;;;;;5016363;28;20032;-71
2021/12/08 04:12:19;;;;;;;21.83;3.58;;;20.00;99.90;;;;;;5019174;28;20091;-74
2021/12/08 04:14:53;;;;;;;19.30;3.20;;;20.00;99.90;;;;;;5012331;28;20249;-77
2021/12/08 04:17:36;;;;;;;14.80;3.08;;;20.00;99.90;;;;;;5014146;28;20048;-74
2021/12/08 04:20:13;;;;;;;19.92;2.65;;;20.00;99.90;;;;;;5016522;28;20029;-85
2021/12/08 04:22:50;;;;;;;13.00;2.85;;;20.00;99.90;;;;;;5015843;28;20445;-83
2021/12/08 04:25:23;;;;;;;20.45;3.50;;;19.90;99.90;;;;;;5018497;28;20092;-86
2021/12/08 04:27:52;;;;;;;15.73;2.83;;;19.80;99.90;;;;;;5015265;28;20025;-77
2021/12/08 04:30:32;;;;;;;18.27;2.55;;;19.80;99.90;;;;;;4998700;28;20017;-84
2021/12/08 04:33:00;;;;;;;16.80;2.78;;;19.70;99.90;;;;;;5014276;28;21192;-75
2021/12/08 04:35:28;;;;;;;18.65;3.53;;;19.70;99.90;;;;;;5016368;28;20116;-81
2021/12/08 04:38:00;;;;;;;19.98;3.35;;;19.70;99.90;;;;;;5013652;28;20037;-77
2021/12/08 04:40:43;;;;;;;13.27;3.78;;;19.60;99.90;;;;;;5015436;28;20049;-83
2021/12/08 04:46:04;;;;;;;14.27;2.60;;;19.60;99.90;;;;;;5012601;28;20030;-76
2021/12/08 04:49:01;;;;;;;17.75;3.20;;;19.50;99.90;;;;;;5015916;28;20029;-80
2021/12/08 05:10:16;;;;;;;21.27;2.85;;;19.30;99.90;;;;;;5014690;28;20045;-78
2021/12/08 05:12:47;;;;;;;15.82;2.53;;;19.40;99.90;;;;;;5013325;28;20030;-79
2021/12/08 05:15:21;;;;;;;16.85;2.80;;;19.30;99.90;;;;;;5014829;28;20071;-83
2021/12/08 05:18:00;;;;;;;18.40;3.60;;;19.30;99.90;;;;;;5012687;28;20079;-79
2021/12/08 05:20:42;;;;;;;18.33;3.05;;;19.30;99.90;;;;;;5014837;28;20029;-83
2021/12/08 05:23:18;;;;;;;17.90;4.18;;;19.40;99.90;;;;;;5014520;28;20056;-73
2021/12/08 05:25:46;;;;;;;25.20;4.40;;;19.40;99.90;;;;;;5012122;28;20141;-74
2021/12/08 05:28:25;;;;;;;16.73;3.25;;;19.40;99.90;;;;;;5014963;28;20025;-82
2021/12/08 05:31:12;;;;;;;15.88;3.75;;;19.30;99.90;;;;;;5011335;28;20014;-73
2021/12/08 05:33:41;;;;;;;17.38;3.78;;;19.40;99.90;;;;;;5014409;28;20072;-76
2021/12/08 05:36:10;;;;;;;16.33;3.13;;;19.30;99.90;;;;;;5013358;28;20026;-80
2021/12/08 05:38:40;;;;;;;18.83;4.03;;;19.30;99.90;;;;;;4997170;28;20080;-72
2021/12/08 05:41:15;;;;;;;22.00;3.33;;;19.30;99.90;;;;;;5012745;28;20090;-80
2021/12/08 05:43:44;;;;;;;21.67;4.80;;;19.30;99.90;;;;;;4996334;28;20528;-75
2021/12/08 05:46:15;;;;;;;28.85;4.55;;;19.30;99.90;;;;;;5012218;28;20112;-75
2021/12/08 05:48:46;;;;;;;17.48;3.15;;;19.20;99.90;;;;;;4996153;28;20041;-76
2021/12/08 05:51:23;;;;;;;21.50;4.03;;;19.20;99.90;;;;;;5013853;28;20071;-78
2021/12/08 05:53:56;;;;;;;25.35;4.35;;;19.20;99.90;;;;;;5014052;28;20035;-80
2021/12/08 05:56:24;;;;;;;20.17;4.45;;;19.20;99.90;;;;;;4998383;28;20025;-80
2021/12/08 05:58:55;;;;;;;16.23;3.13;;;19.10;99.90;;;;;;5012608;28;20021;-74
2021/12/08 06:01:42;;;;;;;19.35;5.63;;;19.00;99.90;;;;;;5014848;28;20528;-79
2021/12/08 06:04:11;;;;;;;26.52;3.58;;;19.00;99.90;;;;;;5011834;28;20060;-80
2021/12/08 06:06:39;;;;;;;13.40;3.35;;;19.00;99.90;;;;;;5012115;28;20033;-81
2021/12/08 06:09:10;;;;;;;20.38;4.40;;;19.00;99.90;;;;;;5012118;28;20120;-80
2021/12/08 06:11:39;;;;;;;25.20;3.42;;;18.90;99.90;;;;;;5015398;28;20474;-78
2021/12/08 06:14:07;;;;;;;22.73;4.57;;;18.90;99.90;;;;;;5015532;28;20025;-77
2021/12/08 06:16:38;;;;;;;17.90;3.80;;;18.80;99.90;;;;;;5015896;28;20024;-81
2021/12/08 06:19:08;;;;;;;22.33;6.05;;;18.80;99.90;;;;;;5015318;28;20121;-76
2021/12/08 06:21:36;;;;;;;13.90;5.10;;;18.80;99.90;;;;;;5013276;28;20037;-78
2021/12/08 06:24:07;;;;;;;27.83;5.97;;;18.70;99.90;;;;;;5010661;28;20041;-77
2021/12/08 06:26:36;;;;;;;20.00;5.23;;;18.70;99.90;;;;;;5012517;28;20017;-78
2021/12/08 06:29:17;;;;;;;24.90;4.95;;;18.60;99.90;;;;;;5068440;27;20438;-77
2021/12/08 06:31:47;;;;;;;20.63;3.55;;;18.60;99.90;;;;;;5049820;28;20800;-76
2021/12/08 06:34:15;;;;;;;14.73;2.75;;;18.50;99.90;;;;;;5047134;28;20033;-75
2021/12/08 06:36:50;;;;;;;27.83;6.22;;;18.40;99.90;;;;;;5048573;28;20078;-76
2021/12/08 06:39:25;;;;;;;16.00;3.47;;;18.30;99.90;;;;;;5048736;28;20029;-77
2021/12/08 06:41:59;;;;;;;18.52;3.92;;;18.30;99.90;;;;;;5048735;28;20020;-77
2021/12/08 06:44:31;;;;;;;17.27;4.13;;;18.20;99.90;;;;;;5048893;28;20027;-77
2021/12/08 06:47:00;;;;;;;17.75;5.05;;;18.00;99.90;;;;;;5048073;28;20100;-77
2021/12/08 06:49:28;;;;;;;22.45;5.30;;;18.00;99.90;;;;;;5048174;28;20032;-76
2021/12/08 06:52:04;;;;;;;19.92;4.57;;;18.00;99.90;;;;;;5048346;28;20017;-77
2021/12/08 06:54:40;;;;;;;16.67;5.45;;;18.00;99.90;;;;;;5048001;28;20043;-77
2021/12/08 06:57:19;;;;;;;20.00;4.20;;;18.00;99.90;;;;;;5047514;28;20024;-77
2021/12/08 07:00:17;;;;;;;21.00;4.90;;;17.90;99.90;;;;;;5048295;28;20029;-75
2021/12/08 07:05:52;;;;;;;21.02;5.70;;;17.90;99.90;;;;;;5047397;28;20098;-78
2021/12/08 07:08:16;;;;;;;15.80;4.10;;;17.80;99.90;;;;;;5045784;28;20166;-78
2021/12/08 07:10:46;;;;;;;17.50;3.80;;;17.80;99.90;;;;;;5048445;28;20039;-76
2021/12/08 07:13:19;;;;;;;20.00;4.57;;;17.80;99.90;;;;;;5046190;28;20036;-75
2021/12/08 07:15:52;;;;;;;21.52;4.70;;;17.80;99.90;;;;;;5048124;28;20123;-78
2021/12/08 07:18:25;;;;;;;18.25;4.55;;;17.80;99.90;;;;;;5046457;28;20272;-77
2021/12/08 07:21:00;;;;;;;22.77;6.65;;;17.80;99.90;;;;;;5048558;28;20378;-78
2021/12/08 07:23:59;;;;;;;21.30;5.25;;;17.80;99.90;;;;;;5048079;28;20021;-76
2021/12/08 07:26:32;;;;;;;19.88;5.32;;;17.80;99.90;;;;;;5047190;28;20107;-74
2021/12/08 07:29:01;;;;;;;18.80;5.10;;;17.80;99.90;;;;;;5048473;28;20047;-77
2021/12/08 07:31:36;;;;;;;17.25;4.03;;;17.90;99.90;;;;;;5046211;28;20029;-77
2021/12/08 07:34:15;;;;;;;15.63;3.58;;;17.90;99.90;;;;;;5048700;28;20021;-77
2021/12/08 07:36:45;;;;;;;16.48;3.78;;;18.00;99.90;;;;;;5046624;28;20029;-78
2021/12/08 07:39:17;;;;;;;18.30;5.07;;;18.00;99.90;;;;;;5042839;28;20024;-76
2021/12/08 07:41:52;;;;;;;21.15;4.38;;;18.00;99.90;;;;;;5033247;28;20060;-77
2021/12/08 07:44:21;;;;;;;15.20;3.28;;;18.00;99.90;;;;;;5035533;28;20040;-77
2021/12/08 07:47:13;;;;;;;21.45;6.60;;;18.00;99.90;;;;;;5033482;28;20087;-78
2021/12/08 07:49:45;;;;;;;21.57;4.50;;;18.10;99.90;;;;;;5031058;28;20028;-77
2021/12/08 07:52:17;;;;;;;20.67;4.57;;;18.00;99.90;;;;;;5035820;28;20106;-77
2021/12/08 07:54:45;;;;;;;18.55;4.72;;;18.10;99.90;;;;;;5032748;28;20036;-76
2021/12/08 07:57:19;;;;;;;18.25;3.83;;;18.10;99.90;;;;;;5034135;28;20039;-75
2021/12/08 07:59:50;;;;;;;19.45;3.80;;;18.00;99.90;;;;;;5033066;28;20119;-76
2021/12/08 08:02:18;;;;;;;21.73;3.97;;;18.00;99.90;;;;;;5035338;28;20039;-75
2021/12/08 08:04:48;;;;;;;16.80;3.20;;;17.90;99.90;;;;;;5031728;28;20092;-76
2021/12/08 08:07:17;;;;;;;16.90;2.75;;;18.00;99.90;;;;;;5035687;28;20040;-78
2021/12/08 08:09:47;;;;;;;18.70;4.47;;;18.00;99.90;;;;;;5032522;28;20039;-79
2021/12/08 08:12:22;;;;;;;19.75;5.25;;;18.00;99.90;;;;;;5036065;28;20096;-76
2021/12/08 08:14:56;;;;;;;16.30;3.85;;;18.00;99.90;;;;;;5033531;28;20044;-77
2021/12/08 08:17:33;;;;;;;25.65;4.88;;;18.00;99.90;;;;;;5034349;28;20021;-80
2021/12/08 08:20:10;;;;;;;18.27;4.30;;;18.00;99.90;;;;;;5033414;28;20040;-77
2021/12/08 08:22:37;;;;;;;19.13;4.68;;;18.00;99.90;;;;;;5032211;28;20021;-79
2021/12/08 08:25:09;;;;;;;17.23;4.32;;;18.10;99.90;;;;;;5034763;28;20171;-79
2021/12/08 08:27:37;;;;;;;19.33;3.87;;;18.00;99.90;;;;;;5032192;28;20051;-78
2021/12/08 08:30:08;;;;;;;16.17;4.68;;;18.00;99.90;;;;;;5032205;28;20268;-77
2021/12/08 08:32:39;;;;;;;20.17;4.20;;;18.00;99.90;;;;;;5032190;28;20123;-80
2021/12/08 08:35:16;;;;;;;22.13;3.42;;;18.00;99.90;;;;;;5033096;28;20017;-77
2021/12/08 08:37:44;;;;;;;12.00;3.17;;;18.00;99.90;;;;;;5033508;28;20390;-80
2021/12/08 08:40:22;;;;;;;17.67;2.85;;;18.00;99.90;;;;;;5034391;28;20500;-78
2021/12/08 08:42:51;;;;;;;16.70;2.85;;;18.00;99.90;;;;;;5033397;28;20036;-80
2021/12/08 08:45:38;;;;;;;14.90;3.17;;;18.00;99.90;;;;;;5033294;28;20120;-79
2021/12/08 08:48:10;;;;;;;24.23;4.40;;;18.00;99.90;;;;;;5032667;28;20040;-80
2021/12/08 08:50:40;;;;;;;16.17;3.33;;;17.90;99.90;;;;;;5033174;28;20048;-80
2021/12/08 08:53:08;;;;;;;18.65;3.13;;;17.90;99.90;;;;;;5032446;28;20044;-79
2021/12/08 08:55:44;;;;;;;14.57;3.03;;;17.90;99.90;;;;;;5034725;28;20039;-78
2021/12/08 08:58:13;;;;;;;18.65;4.53;;;17.90;99.90;;;;;;5032191;28;20082;-79
2021/12/08 09:00:50;;;;;;;13.70;2.85;;;17.80;99.90;;;;;;5034572;28;20512;-77
2021/12/08 09:03:22;;;;;;;17.67;3.38;;;17.80;99.90;;;;;;5033376;28;20074;-77
2021/12/08 09:05:58;;;;;;;18.85;4.20;;;17.70;99.90;;;;;;5032649;28;20025;-78
2021/12/08 09:08:28;;;;;;;25.52;3.65;;;17.70;99.90;;;;;;5033777;28;20045;-79
2021/12/08 09:11:19;;;;;;;19.63;5.93;;;17.70;99.90;;;;;;5031503;28;20028;-78
2021/12/08 09:13:59;;;;;;;19.80;5.57;;;17.70;99.90;;;;;;5032045;28;20066;-75
2021/12/08 09:16:39;;;;;;;22.52;4.32;;;17.70;99.90;;;;;;5034120;28;20025;-79
2021/12/08 09:19:14;;;;;;;23.77;4.53;;;17.70;99.90;;;;;;5031867;28;20477;-77
2021/12/08 09:21:49;;;;;;;24.38;4.97;;;17.80;99.90;;;;;;5033640;28;20029;-80
2021/12/08 09:24:37;;;;;;;23.17;4.57;;;17.80;99.90;;;;;;5031935;28;20523;-80
2021/12/08 09:27:08;;;;;;;18.85;3.08;;;17.80;99.90;;;;;;5031013;28;20053;-78
2021/12/08 09:29:43;;;;;;;17.88;3.13;;;17.70;99.90;;;;;;5035651;28;20135;-80
2021/12/08 09:32:23;;;;;;;21.90;3.45;;;17.70;99.90;;;;;;5033580;28;20574;-78
2021/12/08 09:34:58;;;;;;;20.60;4.03;;;17.70;99.90;;;;;;5036641;28;20132;-80
2021/12/08 09:37:32;;;;;;;16.05;3.25;;;17.70;99.90;;;;;;5034581;28;20039;-83
2021/12/08 09:40:33;;;;;;;13.68;2.53;;;17.70;99.90;;;;;;5033064;28;20037;-79
2021/12/08 09:43:11;;;;;;;15.25;2.80;;;17.60;99.90;;;;;;5034282;28;20300;-83
2021/12/08 09:45:52;;;;;;;19.10;2.80;;;17.60;99.90;;;;;;5029181;28;20031;-81
2021/12/08 09:48:19;;;;;;;20.77;4.40;;;17.70;99.90;;;;;;5027659;28;20540;-81
2021/12/08 09:50:47;;;;;;;14.40;3.75;;;17.70;99.90;;;;;;5029186;28;20048;-83
2021/12/08 09:53:14;;;;;;;15.57;3.28;;;17.70;99.90;;;;;;5025275;28;20033;-76
2021/12/08 09:55:42;;;;;;;17.90;3.83;;;17.70;99.90;;;;;;5027636;28;20025;-79
2021/12/08 09:58:10;;;;;;;15.15;4.03;;;17.70;99.90;;;;;;5026727;28;20564;-83
2021/12/08 10:00:43;;;;;;;12.65;2.70;;;17.70;99.90;;;;;;5029197;28;20028;-84
2021/12/08 10:03:13;;;;;;;17.92;3.10;;;17.70;99.90;;;;;;5030503;28;20140;-78
2021/12/08 10:05:41;;;;;;;19.83;2.72;;;17.70;99.90;;;;;;5030652;28;20021;-80
2021/12/08 10:08:10;;;;;;;10.35;2.65;;;17.70;99.90;;;;;;5031690;28;20057;-78
2021/12/08 10:10:41;;;;;;;18.13;3.28;;;17.70;99.90;;;;;;5030819;28;20031;-78
2021/12/08 10:13:11;;;;;;;13.38;2.97;;;17.80;99.90;;;;;;5026553;28;20036;-78
2021/12/08 10:15:39;;;;;;;18.52;3.75;;;17.80;99.90;;;;;;5028628;28;20033;-85
2021/12/08 10:18:09;;;;;;;19.58;2.95;;;17.80;99.90;;;;;;5032683;28;20038;-82
2021/12/08 10:21:02;;;;;;;18.50;3.35;;;17.80;99.90;;;;;;5033333;28;20029;-82
2021/12/08 10:23:34;;;;;;;17.48;3.00;;;17.80;99.90;;;;;;5028469;28;20099;-81
2021/12/08 10:26:07;;;;;;;10.25;3.33;;;17.80;99.90;;;;;;5031331;28;20065;-76
2021/12/08 10:29:01;;;;;;;13.75;3.13;;;17.80;99.90;;;;;;5029698;28;20037;-81
2021/12/08 10:31:33;;;;;;;11.35;2.40;;;17.80;99.90;;;;;;5026786;28;20382;-81
2021/12/08 10:36:55;;;;;;;13.02;4.10;;;17.80;99.90;;;;;;5029949;28;20573;-82
2021/12/08 10:39:37;;;;;;;15.80;3.63;;;17.80;99.90;;;;;;5029411;28;20128;-82
2021/12/08 10:42:26;;;;;;;11.50;3.40;;;17.90;99.90;;;;;;5032292;28;20024;-80
2021/12/08 10:45:08;;;;;;;13.77;2.75;;;17.90;99.90;;;;;;5036264;28;20111;-84
2021/12/08 10:47:49;;;;;;;20.83;4.43;;;17.90;99.90;;;;;;5034604;28;20513;-78
2021/12/08 10:56:09;;;;;;;10.55;2.40;;;17.80;99.90;;;;;;5018357;28;20029;-84
2021/12/08 10:58:43;;;;;;;12.40;2.95;;;17.90;99.90;;;;;;5015579;28;20831;-83
2021/12/08 11:01:21;;;;;;;18.73;4.63;;;17.90;99.90;;;;;;5017006;28;20508;-84
2021/12/08 11:03:51;;;;;;;19.92;2.85;;;17.80;99.90;;;;;;5017886;28;20473;-85
2021/12/08 11:06:20;;;;;;;17.38;3.30;;;17.80;99.90;;;;;;5017061;28;20116;-83
2021/12/08 11:08:49;;;;;;;13.68;2.88;;;17.80;99.90;;;;;;5032598;28;20032;-86
2021/12/08 11:11:32;;;;;;;18.45;3.05;;;17.80;99.90;;;;;;5037640;28;20021;-82
2021/12/08 11:14:05;;;;;;;16.10;3.20;;;17.80;99.90;;;;;;5038383;28;20485;-81
2021/12/08 11:16:45;;;;;;;16.65;3.30;;;17.80;99.90;;;;;;5040373;28;20040;-80
2021/12/08 11:19:24;;;;;;;16.97;3.63;;;17.80;99.90;;;;;;5021230;28;20457;-82
2021/12/08 11:21:56;;;;;;;18.75;3.05;;;17.80;99.90;;;;;;5020328;28;20502;-82
2021/12/08 11:24:34;;;;;;;16.77;3.28;;;17.80;99.90;;;;;;5024132;28;20030;-75
2021/12/08 11:27:08;;;;;;;16.88;3.72;;;17.80;99.90;;;;;;5020258;28;20026;-81
2021/12/08 11:29:38;;;;;;;19.33;4.10;;;17.90;99.90;;;;;;5019622;28;20535;-83
2021/12/08 11:32:12;;;;;;;14.95;2.65;;;17.90;99.90;;;;;;5023198;28;20056;-83
2021/12/08 11:34:47;;;;;;;18.80;4.35;;;17.80;99.90;;;;;;5018382;28;20033;-81
2021/12/08 11:37:24;;;;;;;14.40;4.03;;;17.80;99.90;;;;;;5019653;28;20053;-84
2021/12/08 11:39:58;;;;;;;28.27;3.97;;;17.80;99.90;;;;;;5020042;28;20370;-80
2021/12/08 11:42:29;;;;;;;15.52;3.60;;;17.80;99.90;;;;;;5019453;28;20386;-80
2021/12/08 11:45:00;;;;;;;17.85;3.78;;;17.70;99.90;;;;;;5020116;28;20017;-83
2021/12/08 11:47:34;;;;;;;15.55;3.47;;;17.80;99.90;;;;;;5019379;28;20137;-76
2021/12/08 11:50:15;;;;;;;17.15;4.82;;;17.80;99.90;;;;;;5019196;28;20119;-81
2021/12/08 11:52:43;;;;;;;14.82;3.53;;;17.80;99.90;;;;;;5018473;28;20029;-81
2021/12/08 11:55:17;;;;;;;13.07;3.28;;;17.70;99.90;;;;;;5018059;28;20033;-82
2021/12/08 11:57:48;;;;;;;14.80;3.88;;;17.80;99.90;;;;;;5017648;28;20482;-81
2021/12/08 12:00:21;;;;;;;18.02;4.25;;;17.70;99.90;;;;;;5019537;28;20013;-81
2021/12/08 12:03:01;;;;;;;18.27;3.28;;;17.70;99.90;;;;;;5017232;28;20104;-81
2021/12/08 12:05:32;;;;;;;15.07;3.90;;;17.60;99.90;;;;;;5019292;28;20030;-81
2021/12/08 12:08:01;;;;;;;15.32;3.25;;;17.60;99.90;;;;;;5019168;28;20038;-78
2021/12/08 12:10:32;;;;;;;11.32;3.38;;;17.60;99.90;;;;;;5019638;28;20025;-79
2021/12/08 12:13:00;;;;;;;17.42;3.75;;;17.60;99.90;;;;;;5019094;28;20060;-83
2021/12/08 12:15:28;;;;;;;13.88;3.28;;;17.60;99.90;;;;;;5018315;28;20124;-84
2021/12/08 12:17:55;;;;;;;22.92;5.65;;;17.50;99.90;;;;;;5016434;28;20268;-83
2021/12/08 12:20:48;;;;;;;14.80;4.13;;;17.50;99.90;;;;;;5019068;28;20021;-81
2021/12/08 12:23:52;;;;;;;17.15;3.40;;;17.50;99.90;;;;;;5011148;28;20558;-80
2021/12/08 12:26:53;;;;;;;13.25;3.35;;;17.50;99.90;;;;;;5018786;28;20032;-80
2021/12/08 12:30:04;;;;;;;14.50;3.38;;;17.50;99.90;;;;;;5019364;28;20049;-78
2021/12/08 12:32:44;;;;;;;11.00;3.17;;;17.50;99.90;;;;;;5019400;28;20022;-80
2021/12/08 12:35:16;;;;;;;16.60;3.28;;;17.50;99.90;;;;;;5017256;28;20488;-81
2021/12/08 12:37:45;;;;;;;15.15;3.20;;;17.50;99.90;;;;;;5016111;28;20024;-82
2021/12/08 12:40:29;;;;;;;16.50;4.20;;;17.50;99.90;;;;;;5018282;28;20040;-80
2021/12/08 12:42:59;;;;;;;17.98;3.65;;;17.40;99.90;;;;;;5016149;28;20017;-80
2021/12/08 12:45:43;;;;;;;17.75;3.55;;;17.50;99.90;;;;;;5018205;28;20415;-82
2021/12/08 12:48:21;;;;;;;18.42;4.32;;;17.50;99.90;;;;;;5018253;28;20033;-80
2021/12/08 12:51:06;;;;;;;16.35;3.72;;;17.50;99.90;;;;;;5016901;28;20018;-81
2021/12/08 12:53:48;;;;;;;15.07;3.30;;;17.50;99.90;;;;;;5017902;28;20497;-83
2021/12/08 12:56:28;;;;;;;11.48;3.20;;;17.50;99.90;;;;;;5016691;28;20028;-82
2021/12/08 12:58:57;;;;;;;13.07;3.30;;;17.50;99.90;;;;;;5017256;28;20048;-77
2021/12/08 13:01:34;;;;;;;14.30;3.15;;;17.50;99.90;;;;;;5018412;28;20394;-79
2021/12/08 13:04:16;;;;;;;16.10;3.55;;;17.50;99.90;;;;;;5016016;28;20108;-82
2021/12/08 13:07:02;;;;;;;12.02;3.35;;;17.40;99.90;;;;;;5018417;28;20022;-82
2021/12/08 13:09:43;;;;;;;11.93;3.00;;;17.40;99.90;;;;;;5018263;28;20033;-84
2021/12/08 13:12:16;;;;;;;13.75;3.22;;;17.50;99.90;;;;;;5016620;28;20093;-77
2021/12/08 13:14:45;;;;;;;17.75;3.70;;;17.50;99.90;;;;;;5018233;28;20425;-81
2021/12/08 13:17:21;;;;;;;13.95;3.95;;;17.50;99.90;;;;;;5016247;28;20842;-80
2021/12/08 13:19:53;;;;;;;14.65;3.67;;;17.50;99.90;;;;;;5017281;28;20091;-83
2021/12/08 13:22:51;;;;;;;14.45;3.95;;;17.60;99.90;;;;;;5015852;28;20020;-86
2021/12/08 13:25:57;;;;;;;17.25;4.63;;;17.60;99.90;;;;;;5016303;28;20037;-84
2021/12/08 13:28:53;;;;;;;16.83;3.90;;;17.60;99.90;;;;;;5018717;28;20502;-84
2021/12/08 13:31:30;;;;;;;17.83;4.95;;;17.50;99.90;;;;;;5020864;28;20030;-85
2021/12/08 13:34:06;;;;;;;16.35;5.10;;;17.50;99.90;;;;;;5022628;28;20021;-79
2021/12/08 13:36:39;;;;;;;13.85;4.30;;;17.50;99.90;;;;;;5015876;28;20528;-75
2021/12/08 13:39:14;;;;;;;16.60;3.90;;;17.60;99.90;;;;;;5017737;28;20049;-82
2021/12/08 13:41:53;;;;;;;13.82;4.22;;;17.60;99.90;;;;;;5015976;28;20079;-84
2021/12/08 13:44:26;;;;;;;13.45;3.80;;;17.60;99.90;;;;;;5018196;28;20079;-82
2021/12/08 13:46:58;;;;;;;10.73;3.65;;;17.60;99.90;;;;;;5015915;28;20431;-85
2021/12/08 13:49:35;;;;;;;14.25;3.72;;;17.50;99.90;;;;;;5018703;28;20052;-84
2021/12/08 13:52:08;;;;;;;12.07;4.00;;;17.50;99.90;;;;;;5019117;28;20021;-77
2021/12/08 13:54:45;;;;;;;12.82;3.88;;;17.50;99.90;;;;;;5017277;28;20025;-74
2021/12/08 13:57:41;;;;;;;13.73;4.25;;;17.60;99.90;;;;;;5018168;28;20504;-84
2021/12/08 14:00:18;;;;;;;21.83;4.60;;;17.60;99.90;;;;;;5005155;28;20065;-79
2021/12/08 14:02:49;;;;;;;12.32;4.63;;;17.50;99.90;;;;;;5016521;28;20013;-83